sensor_id;sensor_type;location;lat;lon;timestamp;P1;durP1;ratioP1;P2;durP2;ratioP2
11004;SDS011;5555;59.622;16.556;2024-01-15T00:00:42;1.33;;;0.70;;
11004;SDS011;5555;59.622;16.556;2024-01-15T00:03:07;1.67;;;0.63;;
11004;SDS011;5555;59.622;16.556;2024-01-15T00:05:34;2.90;;;0.67;;
11004;SDS011;5555;59.622;16.556;2024-01-15T00:08:00;4.07;;;0.77;;
11004;SDS011;5555;59.622;16.556;2024-01-15T00:10:25;1.90;;;0.73;;
11004;SDS011;5555;59.622;16.556;2024-01-15T00:12:51;1.43;;;0.73;;
11004;SDS011;5555;59.622;16.556;2024-01-15T00:15:17;1.20;;;0.60;;
11004;SDS011;5555;59.622;16.556;2024-01-15T00:17:42;2.07;;;0.70;;
11004;SDS011;5555;59.622;16.556;2024-01-15T00:20:08;1.50;;;0.60;;
11004;SDS011;5555;59.622;16.556;2024-01-15T00:22:34;2.67;;;0.73;;
11004;SDS011;5555;59.622;16.556;2024-01-15T00:25:00;3.07;;;0.80;;
11004;SDS011;5555;59.622;16.556;2024-01-15T00:27:27;4.50;;;0.80;;
11004;SDS011;5555;59.622;16.556;2024-01-15T00:29:52;2.93;;;1.10;;
11004;SDS011;5555;59.622;16.556;2024-01-15T00:32:19;2.47;;;0.73;;
11004;SDS011;5555;59.622;16.556;2024-01-15T00:34:45;2.93;;;0.80;;
11004;SDS011;5555;59.622;16.556;2024-01-15T00:37:11;1.97;;;0.60;;
11004;SDS011;5555;59.622;16.556;2024-01-15T00:39:36;2.07;;;0.70;;
11004;SDS011;5555;59.622;16.556;2024-01-15T00:42:02;1.83;;;0.80;;
11004;SDS011;5555;59.622;16.556;2024-01-15T00:44:28;5.17;;;0.80;;
11004;SDS011;5555;59.622;16.556;2024-01-15T00:46:54;1.27;;;0.50;;
11004;SDS011;5555;59.622;16.556;2024-01-15T00:49:19;2.17;;;0.40;;
11004;SDS011;5555;59.622;16.556;2024-01-15T00:51:45;0.83;;;0.40;;
11004;SDS011;5555;59.622;16.556;2024-01-15T00:54:10;2.10;;;0.70;;
11004;SDS011;5555;59.622;16.556;2024-01-15T00:56:36;1.77;;;1.00;;
11004;SDS011;5555;59.622;16.556;2024-01-15T00:59:02;3.00;;;1.10;;
11004;SDS011;5555;59.622;16.556;2024-01-15T01:01:27;2.53;;;1.40;;
11004;SDS011;5555;59.622;16.556;2024-01-15T01:03:53;2.53;;;1.60;;
11004;SDS011;5555;59.622;16.556;2024-01-15T01:06:19;2.43;;;1.63;;
11004;SDS011;5555;59.622;16.556;2024-01-15T01:08:45;3.27;;;1.60;;
11004;SDS011;5555;59.622;16.556;2024-01-15T01:11:14;2.70;;;1.37;;
11004;SDS011;5555;59.622;16.556;2024-01-15T01:13:40;4.50;;;1.90;;
11004;SDS011;5555;59.622;16.556;2024-01-15T01:16:06;3.47;;;1.10;;
11004;SDS011;5555;59.622;16.556;2024-01-15T01:18:31;1.77;;;1.20;;
11004;SDS011;5555;59.622;16.556;2024-01-15T01:20:57;2.90;;;1.20;;
11004;SDS011;5555;59.622;16.556;2024-01-15T01:23:22;2.17;;;1.30;;
11004;SDS011;5555;59.622;16.556;2024-01-15T01:25:49;6.13;;;1.70;;
11004;SDS011;5555;59.622;16.556;2024-01-15T01:28:14;2.70;;;1.27;;
11004;SDS011;5555;59.622;16.556;2024-01-15T01:30:40;4.70;;;1.60;;
11004;SDS011;5555;59.622;16.556;2024-01-15T01:33:06;2.43;;;0.90;;
11004;SDS011;5555;59.622;16.556;2024-01-15T01:35:31;1.77;;;1.00;;
11004;SDS011;5555;59.622;16.556;2024-01-15T01:37:57;3.83;;;1.10;;
11004;SDS011;5555;59.622;16.556;2024-01-15T01:40:22;3.27;;;1.30;;
11004;SDS011;5555;59.622;16.556;2024-01-15T01:42:48;2.77;;;1.17;;
11004;SDS011;5555;59.622;16.556;2024-01-15T01:45:14;2.57;;;1.00;;
11004;SDS011;5555;59.622;16.556;2024-01-15T01:47:40;2.83;;;0.93;;
11004;SDS011;5555;59.622;16.556;2024-01-15T01:50:06;3.80;;;1.30;;
11004;SDS011;5555;59.622;16.556;2024-01-15T01:52:32;1.90;;;1.10;;
11004;SDS011;5555;59.622;16.556;2024-01-15T01:54:58;1.60;;;1.00;;
11004;SDS011;5555;59.622;16.556;2024-01-15T01:57:26;2.57;;;1.10;;
11004;SDS011;5555;59.622;16.556;2024-01-15T01:59:52;2.60;;;0.93;;
11004;SDS011;5555;59.622;16.556;2024-01-15T02:02:18;4.00;;;1.00;;
11004;SDS011;5555;59.622;16.556;2024-01-15T02:04:44;2.90;;;1.07;;
11004;SDS011;5555;59.622;16.556;2024-01-15T02:07:12;2.37;;;1.33;;
11004;SDS011;5555;59.622;16.556;2024-01-15T02:09:38;4.10;;;1.10;;
11004;SDS011;5555;59.622;16.556;2024-01-15T02:12:04;2.53;;;1.00;;
11004;SDS011;5555;59.622;16.556;2024-01-15T02:14:29;2.20;;;1.00;;
11004;SDS011;5555;59.622;16.556;2024-01-15T02:16:55;2.73;;;1.03;;
11004;SDS011;5555;59.622;16.556;2024-01-15T02:19:21;2.63;;;0.83;;
11004;SDS011;5555;59.622;16.556;2024-01-15T02:21:46;4.70;;;1.30;;
11004;SDS011;5555;59.622;16.556;2024-01-15T02:24:12;2.23;;;1.60;;
11004;SDS011;5555;59.622;16.556;2024-01-15T02:26:38;2.27;;;0.90;;
11004;SDS011;5555;59.622;16.556;2024-01-15T02:29:04;2.30;;;0.87;;
11004;SDS011;5555;59.622;16.556;2024-01-15T02:31:31;4.03;;;0.93;;
11004;SDS011;5555;59.622;16.556;2024-01-15T02:33:57;4.23;;;1.53;;
11004;SDS011;5555;59.622;16.556;2024-01-15T02:36:22;5.50;;;1.37;;
11004;SDS011;5555;59.622;16.556;2024-01-15T02:38:48;2.07;;;1.03;;
11004;SDS011;5555;59.622;16.556;2024-01-15T02:41:14;1.40;;;0.90;;
11004;SDS011;5555;59.622;16.556;2024-01-15T02:43:39;3.80;;;0.90;;
11004;SDS011;5555;59.622;16.556;2024-01-15T02:46:06;5.10;;;1.20;;
11004;SDS011;5555;59.622;16.556;2024-01-15T02:48:32;2.37;;;1.00;;
11004;SDS011;5555;59.622;16.556;2024-01-15T02:50:59;2.10;;;0.87;;
11004;SDS011;5555;59.622;16.556;2024-01-15T02:53:25;2.93;;;1.30;;
11004;SDS011;5555;59.622;16.556;2024-01-15T02:55:51;2.00;;;1.00;;
11004;SDS011;5555;59.622;16.556;2024-01-15T02:58:16;1.97;;;1.07;;
11004;SDS011;5555;59.622;16.556;2024-01-15T03:00:42;2.30;;;0.80;;
11004;SDS011;5555;59.622;16.556;2024-01-15T03:03:08;2.33;;;0.83;;
11004;SDS011;5555;59.622;16.556;2024-01-15T03:05:34;2.17;;;0.80;;
11004;SDS011;5555;59.622;16.556;2024-01-15T03:07:59;3.10;;;0.90;;
11004;SDS011;5555;59.622;16.556;2024-01-15T03:10:25;1.60;;;1.00;;
11004;SDS011;5555;59.622;16.556;2024-01-15T03:12:51;2.80;;;0.97;;
11004;SDS011;5555;59.622;16.556;2024-01-15T03:15:16;1.40;;;0.90;;
11004;SDS011;5555;59.622;16.556;2024-01-15T03:17:43;2.40;;;1.10;;
11004;SDS011;5555;59.622;16.556;2024-01-15T03:20:09;3.00;;;1.00;;
11004;SDS011;5555;59.622;16.556;2024-01-15T03:22:35;2.03;;;0.90;;
11004;SDS011;5555;59.622;16.556;2024-01-15T03:25:00;1.47;;;0.87;;
11004;SDS011;5555;59.622;16.556;2024-01-15T03:27:26;0.90;;;0.70;;
11004;SDS011;5555;59.622;16.556;2024-01-15T03:29:52;4.97;;;1.00;;
11004;SDS011;5555;59.622;16.556;2024-01-15T03:32:17;2.40;;;0.90;;
11004;SDS011;5555;59.622;16.556;2024-01-15T03:34:44;2.67;;;1.10;;
11004;SDS011;5555;59.622;16.556;2024-01-15T03:37:11;1.77;;;1.27;;
11004;SDS011;5555;59.622;16.556;2024-01-15T03:39:37;1.27;;;0.97;;
11004;SDS011;5555;59.622;16.556;2024-01-15T03:42:03;2.20;;;1.10;;
11004;SDS011;5555;59.622;16.556;2024-01-15T03:44:29;1.07;;;0.70;;
11004;SDS011;5555;59.622;16.556;2024-01-15T03:46:54;1.53;;;0.90;;
11004;SDS011;5555;59.622;16.556;2024-01-15T03:49:20;1.00;;;0.87;;
11004;SDS011;5555;59.622;16.556;2024-01-15T03:51:46;1.93;;;1.00;;
11004;SDS011;5555;59.622;16.556;2024-01-15T03:54:11;2.70;;;1.00;;
11004;SDS011;5555;59.622;16.556;2024-01-15T03:56:37;2.80;;;1.33;;
11004;SDS011;5555;59.622;16.556;2024-01-15T03:59:02;2.87;;;1.00;;
11004;SDS011;5555;59.622;16.556;2024-01-15T04:01:28;1.43;;;1.00;;
11004;SDS011;5555;59.622;16.556;2024-01-15T04:03:54;2.17;;;0.77;;
11004;SDS011;5555;59.622;16.556;2024-01-15T04:06:20;3.07;;;1.00;;
11004;SDS011;5555;59.622;16.556;2024-01-15T04:08:46;1.93;;;0.97;;
11004;SDS011;5555;59.622;16.556;2024-01-15T04:11:11;2.43;;;0.90;;
11004;SDS011;5555;59.622;16.556;2024-01-15T04:13:37;3.60;;;1.00;;
11004;SDS011;5555;59.622;16.556;2024-01-15T04:16:03;3.40;;;0.80;;
11004;SDS011;5555;59.622;16.556;2024-01-15T04:18:28;1.93;;;1.07;;
11004;SDS011;5555;59.622;16.556;2024-01-15T04:20:54;2.20;;;1.20;;
11004;SDS011;5555;59.622;16.556;2024-01-15T04:23:20;2.73;;;0.93;;
11004;SDS011;5555;59.622;16.556;2024-01-15T04:25:45;2.07;;;1.10;;
11004;SDS011;5555;59.622;16.556;2024-01-15T04:28:11;2.50;;;1.20;;
11004;SDS011;5555;59.622;16.556;2024-01-15T04:30:37;1.70;;;0.90;;
11004;SDS011;5555;59.622;16.556;2024-01-15T04:33:03;5.30;;;0.90;;
11004;SDS011;5555;59.622;16.556;2024-01-15T04:35:29;2.53;;;1.00;;
11004;SDS011;5555;59.622;16.556;2024-01-15T04:37:55;3.90;;;1.03;;
11004;SDS011;5555;59.622;16.556;2024-01-15T04:40:21;2.03;;;0.90;;
11004;SDS011;5555;59.622;16.556;2024-01-15T04:42:46;1.00;;;0.80;;
11004;SDS011;5555;59.622;16.556;2024-01-15T04:45:12;2.07;;;1.40;;
11004;SDS011;5555;59.622;16.556;2024-01-15T04:47:38;0.90;;;0.60;;
11004;SDS011;5555;59.622;16.556;2024-01-15T04:50:04;1.73;;;0.90;;
11004;SDS011;5555;59.622;16.556;2024-01-15T04:52:30;1.20;;;0.67;;
11004;SDS011;5555;59.622;16.556;2024-01-15T04:54:56;1.83;;;0.93;;
11004;SDS011;5555;59.622;16.556;2024-01-15T04:57:22;3.40;;;1.43;;
11004;SDS011;5555;59.622;16.556;2024-01-15T04:59:47;2.10;;;0.80;;
11004;SDS011;5555;59.622;16.556;2024-01-15T05:02:13;2.57;;;1.10;;
11004;SDS011;5555;59.622;16.556;2024-01-15T05:04:39;3.40;;;1.03;;
11004;SDS011;5555;59.622;16.556;2024-01-15T05:07:04;3.63;;;1.00;;
11004;SDS011;5555;59.622;16.556;2024-01-15T05:09:30;1.40;;;0.80;;
11004;SDS011;5555;59.622;16.556;2024-01-15T05:11:56;1.50;;;0.70;;
11004;SDS011;5555;59.622;16.556;2024-01-15T05:14:21;1.03;;;0.73;;
11004;SDS011;5555;59.622;16.556;2024-01-15T05:16:47;1.33;;;0.90;;
11004;SDS011;5555;59.622;16.556;2024-01-15T05:19:14;3.13;;;0.80;;
11004;SDS011;5555;59.622;16.556;2024-01-15T05:21:40;1.57;;;0.60;;
11004;SDS011;5555;59.622;16.556;2024-01-15T05:24:06;1.63;;;0.80;;
11004;SDS011;5555;59.622;16.556;2024-01-15T05:26:32;1.03;;;0.80;;
11004;SDS011;5555;59.622;16.556;2024-01-15T05:28:58;3.83;;;0.70;;
11004;SDS011;5555;59.622;16.556;2024-01-15T05:31:24;1.93;;;0.80;;
11004;SDS011;5555;59.622;16.556;2024-01-15T05:33:50;1.30;;;0.90;;
11004;SDS011;5555;59.622;16.556;2024-01-15T05:36:15;2.47;;;0.77;;
11004;SDS011;5555;59.622;16.556;2024-01-15T05:38:41;2.03;;;0.77;;
11004;SDS011;5555;59.622;16.556;2024-01-15T05:41:06;1.07;;;0.90;;
11004;SDS011;5555;59.622;16.556;2024-01-15T05:43:32;1.43;;;0.50;;
11004;SDS011;5555;59.622;16.556;2024-01-15T05:45:58;1.60;;;0.50;;
11004;SDS011;5555;59.622;16.556;2024-01-15T05:48:23;2.50;;;0.73;;
11004;SDS011;5555;59.622;16.556;2024-01-15T05:50:49;0.97;;;0.70;;
11004;SDS011;5555;59.622;16.556;2024-01-15T05:53:14;2.50;;;0.90;;
11004;SDS011;5555;59.622;16.556;2024-01-15T05:55:40;4.50;;;0.70;;
11004;SDS011;5555;59.622;16.556;2024-01-15T05:58:06;2.30;;;0.67;;
11004;SDS011;5555;59.622;16.556;2024-01-15T06:00:32;3.17;;;0.77;;
11004;SDS011;5555;59.622;16.556;2024-01-15T06:03:00;0.83;;;0.60;;
11004;SDS011;5555;59.622;16.556;2024-01-15T06:05:26;2.23;;;0.77;;
11004;SDS011;5555;59.622;16.556;2024-01-15T06:07:52;1.40;;;0.80;;
11004;SDS011;5555;59.622;16.556;2024-01-15T06:10:18;1.07;;;0.80;;
11004;SDS011;5555;59.622;16.556;2024-01-15T06:12:44;2.23;;;0.70;;
11004;SDS011;5555;59.622;16.556;2024-01-15T06:15:10;3.33;;;0.67;;
11004;SDS011;5555;59.622;16.556;2024-01-15T06:17:36;2.20;;;0.90;;
11004;SDS011;5555;59.622;16.556;2024-01-15T06:20:02;1.20;;;0.60;;
11004;SDS011;5555;59.622;16.556;2024-01-15T06:22:28;0.90;;;0.70;;
11004;SDS011;5555;59.622;16.556;2024-01-15T06:24:54;0.83;;;0.70;;
11004;SDS011;5555;59.622;16.556;2024-01-15T06:27:20;0.60;;;0.40;;
11004;SDS011;5555;59.622;16.556;2024-01-15T06:29:46;1.17;;;0.80;;
11004;SDS011;5555;59.622;16.556;2024-01-15T06:32:14;0.97;;;0.60;;
11004;SDS011;5555;59.622;16.556;2024-01-15T06:34:40;2.03;;;0.63;;
11004;SDS011;5555;59.622;16.556;2024-01-15T06:37:06;0.77;;;0.50;;
11004;SDS011;5555;59.622;16.556;2024-01-15T06:39:31;0.97;;;0.80;;
11004;SDS011;5555;59.622;16.556;2024-01-15T06:41:57;1.53;;;0.50;;
11004;SDS011;5555;59.622;16.556;2024-01-15T06:44:23;1.70;;;0.70;;
11004;SDS011;5555;59.622;16.556;2024-01-15T06:46:48;1.80;;;0.60;;
11004;SDS011;5555;59.622;16.556;2024-01-15T06:49:14;0.93;;;0.70;;
11004;SDS011;5555;59.622;16.556;2024-01-15T06:51:39;1.90;;;0.80;;
11004;SDS011;5555;59.622;16.556;2024-01-15T06:54:05;1.73;;;0.60;;
11004;SDS011;5555;59.622;16.556;2024-01-15T06:56:31;1.10;;;0.70;;
11004;SDS011;5555;59.622;16.556;2024-01-15T06:58:57;0.93;;;0.57;;
11004;SDS011;5555;59.622;16.556;2024-01-15T07:01:23;1.80;;;0.70;;
11004;SDS011;5555;59.622;16.556;2024-01-15T07:03:49;2.07;;;0.50;;
11004;SDS011;5555;59.622;16.556;2024-01-15T07:06:14;1.27;;;0.50;;
11004;SDS011;5555;59.622;16.556;2024-01-15T07:08:40;1.10;;;0.67;;
11004;SDS011;5555;59.622;16.556;2024-01-15T07:11:06;3.23;;;0.50;;
11004;SDS011;5555;59.622;16.556;2024-01-15T07:13:32;1.17;;;0.50;;
11004;SDS011;5555;59.622;16.556;2024-01-15T07:15:58;1.83;;;0.60;;
11004;SDS011;5555;59.622;16.556;2024-01-15T07:18:24;0.83;;;0.60;;
11004;SDS011;5555;59.622;16.556;2024-01-15T07:20:50;1.63;;;0.83;;
11004;SDS011;5555;59.622;16.556;2024-01-15T07:23:16;0.53;;;0.50;;
11004;SDS011;5555;59.622;16.556;2024-01-15T07:25:42;0.70;;;0.60;;
11004;SDS011;5555;59.622;16.556;2024-01-15T07:28:08;1.07;;;0.70;;
11004;SDS011;5555;59.622;16.556;2024-01-15T07:30:33;1.30;;;0.50;;
11004;SDS011;5555;59.622;16.556;2024-01-15T07:32:59;0.50;;;0.40;;
11004;SDS011;5555;59.622;16.556;2024-01-15T07:35:25;0.87;;;0.60;;
11004;SDS011;5555;59.622;16.556;2024-01-15T07:37:50;1.53;;;0.63;;
11004;SDS011;5555;59.622;16.556;2024-01-15T07:40:16;1.00;;;0.50;;
11004;SDS011;5555;59.622;16.556;2024-01-15T07:42:42;0.50;;;0.47;;
11004;SDS011;5555;59.622;16.556;2024-01-15T07:45:08;0.70;;;0.53;;
11004;SDS011;5555;59.622;16.556;2024-01-15T07:47:37;1.60;;;0.77;;
11004;SDS011;5555;59.622;16.556;2024-01-15T07:50:03;1.50;;;0.77;;
11004;SDS011;5555;59.622;16.556;2024-01-15T07:52:29;0.67;;;0.43;;
11004;SDS011;5555;59.622;16.556;2024-01-15T07:54:55;1.07;;;0.50;;
11004;SDS011;5555;59.622;16.556;2024-01-15T07:57:21;2.40;;;0.80;;
11004;SDS011;5555;59.622;16.556;2024-01-15T07:59:47;0.80;;;0.57;;
11004;SDS011;5555;59.622;16.556;2024-01-15T08:02:13;1.90;;;0.80;;
11004;SDS011;5555;59.622;16.556;2024-01-15T08:04:39;1.03;;;0.70;;
11004;SDS011;5555;59.622;16.556;2024-01-15T08:07:05;0.90;;;0.60;;
11004;SDS011;5555;59.622;16.556;2024-01-15T08:09:32;1.57;;;0.70;;
11004;SDS011;5555;59.622;16.556;2024-01-15T08:11:58;1.40;;;0.70;;
11004;SDS011;5555;59.622;16.556;2024-01-15T08:14:24;1.20;;;0.70;;
11004;SDS011;5555;59.622;16.556;2024-01-15T08:16:49;1.90;;;0.50;;
11004;SDS011;5555;59.622;16.556;2024-01-15T08:19:15;1.23;;;0.53;;
11004;SDS011;5555;59.622;16.556;2024-01-15T08:21:41;0.87;;;0.50;;
11004;SDS011;5555;59.622;16.556;2024-01-15T08:24:08;0.80;;;0.60;;
11004;SDS011;5555;59.622;16.556;2024-01-15T08:26:33;0.83;;;0.60;;
11004;SDS011;5555;59.622;16.556;2024-01-15T08:28:59;1.90;;;0.70;;
11004;SDS011;5555;59.622;16.556;2024-01-15T08:31:25;0.70;;;0.47;;
11004;SDS011;5555;59.622;16.556;2024-01-15T08:33:50;2.63;;;0.60;;
11004;SDS011;5555;59.622;16.556;2024-01-15T08:36:16;1.00;;;0.77;;
11004;SDS011;5555;59.622;16.556;2024-01-15T08:38:42;0.43;;;0.43;;
11004;SDS011;5555;59.622;16.556;2024-01-15T08:41:08;2.10;;;0.70;;
11004;SDS011;5555;59.622;16.556;2024-01-15T08:43:34;0.47;;;0.40;;
11004;SDS011;5555;59.622;16.556;2024-01-15T08:46:00;0.90;;;0.63;;
11004;SDS011;5555;59.622;16.556;2024-01-15T08:48:25;2.93;;;0.70;;
11004;SDS011;5555;59.622;16.556;2024-01-15T08:50:52;0.73;;;0.67;;
11004;SDS011;5555;59.622;16.556;2024-01-15T08:53:19;0.80;;;0.53;;
11004;SDS011;5555;59.622;16.556;2024-01-15T08:55:45;1.90;;;0.60;;
11004;SDS011;5555;59.622;16.556;2024-01-15T08:58:10;1.33;;;0.57;;
11004;SDS011;5555;59.622;16.556;2024-01-15T09:00:36;1.67;;;0.73;;
11004;SDS011;5555;59.622;16.556;2024-01-15T09:03:02;1.30;;;0.40;;
11004;SDS011;5555;59.622;16.556;2024-01-15T09:05:28;1.70;;;0.53;;
11004;SDS011;5555;59.622;16.556;2024-01-15T09:07:54;1.30;;;0.60;;
11004;SDS011;5555;59.622;16.556;2024-01-15T09:10:20;2.03;;;0.67;;
11004;SDS011;5555;59.622;16.556;2024-01-15T09:12:45;1.50;;;0.80;;
11004;SDS011;5555;59.622;16.556;2024-01-15T09:15:11;1.90;;;0.60;;
11004;SDS011;5555;59.622;16.556;2024-01-15T09:17:37;1.67;;;0.40;;
11004;SDS011;5555;59.622;16.556;2024-01-15T09:20:03;0.40;;;0.40;;
11004;SDS011;5555;59.622;16.556;2024-01-15T09:22:31;0.93;;;0.50;;
11004;SDS011;5555;59.622;16.556;2024-01-15T09:24:57;2.93;;;0.60;;
11004;SDS011;5555;59.622;16.556;2024-01-15T09:27:23;0.50;;;0.50;;
11004;SDS011;5555;59.622;16.556;2024-01-15T09:29:51;4.00;;;0.53;;
11004;SDS011;5555;59.622;16.556;2024-01-15T09:32:17;4.00;;;0.77;;
11004;SDS011;5555;59.622;16.556;2024-01-15T09:34:43;0.93;;;0.50;;
11004;SDS011;5555;59.622;16.556;2024-01-15T09:37:11;1.13;;;0.60;;
11004;SDS011;5555;59.622;16.556;2024-01-15T09:39:37;1.97;;;0.60;;
11004;SDS011;5555;59.622;16.556;2024-01-15T09:42:03;1.13;;;0.40;;
11004;SDS011;5555;59.622;16.556;2024-01-15T09:44:29;2.43;;;1.20;;
11004;SDS011;5555;59.622;16.556;2024-01-15T09:46:55;0.90;;;0.50;;
11004;SDS011;5555;59.622;16.556;2024-01-15T09:49:22;2.50;;;0.70;;
11004;SDS011;5555;59.622;16.556;2024-01-15T09:51:48;0.40;;;0.40;;
11004;SDS011;5555;59.622;16.556;2024-01-15T09:54:14;1.27;;;0.57;;
11004;SDS011;5555;59.622;16.556;2024-01-15T09:56:42;2.00;;;0.40;;
11004;SDS011;5555;59.622;16.556;2024-01-15T09:59:11;1.63;;;0.60;;
11004;SDS011;5555;59.622;16.556;2024-01-15T10:01:40;1.40;;;0.60;;
11004;SDS011;5555;59.622;16.556;2024-01-15T10:04:06;2.30;;;0.77;;
11004;SDS011;5555;59.622;16.556;2024-01-15T10:06:32;1.90;;;0.40;;
11004;SDS011;5555;59.622;16.556;2024-01-15T10:08:58;0.60;;;0.47;;
11004;SDS011;5555;59.622;16.556;2024-01-15T10:11:24;1.63;;;0.50;;
11004;SDS011;5555;59.622;16.556;2024-01-15T10:13:50;0.43;;;0.43;;
11004;SDS011;5555;59.622;16.556;2024-01-15T10:16:21;1.47;;;0.67;;
11004;SDS011;5555;59.622;16.556;2024-01-15T10:18:47;1.33;;;0.93;;
11004;SDS011;5555;59.622;16.556;2024-01-15T10:21:13;1.23;;;0.43;;
11004;SDS011;5555;59.622;16.556;2024-01-15T10:23:39;2.43;;;0.80;;
11004;SDS011;5555;59.622;16.556;2024-01-15T10:26:05;0.83;;;0.63;;
11004;SDS011;5555;59.622;16.556;2024-01-15T10:28:30;1.23;;;0.50;;
11004;SDS011;5555;59.622;16.556;2024-01-15T10:30:57;3.00;;;0.67;;
11004;SDS011;5555;59.622;16.556;2024-01-15T10:33:26;1.47;;;0.60;;
11004;SDS011;5555;59.622;16.556;2024-01-15T10:35:55;1.47;;;0.50;;
11004;SDS011;5555;59.622;16.556;2024-01-15T10:38:24;1.00;;;0.50;;
11004;SDS011;5555;59.622;16.556;2024-01-15T10:43:21;1.40;;;0.50;;
11004;SDS011;5555;59.622;16.556;2024-01-15T10:45:48;1.03;;;0.50;;
11004;SDS011;5555;59.622;16.556;2024-01-15T10:48:16;1.77;;;0.50;;
11004;SDS011;5555;59.622;16.556;2024-01-15T10:50:42;2.30;;;0.50;;
11004;SDS011;5555;59.622;16.556;2024-01-15T10:53:09;2.23;;;0.73;;
11004;SDS011;5555;59.622;16.556;2024-01-15T10:55:37;0.60;;;0.40;;
11004;SDS011;5555;59.622;16.556;2024-01-15T10:58:06;3.40;;;0.60;;
11004;SDS011;5555;59.622;16.556;2024-01-15T11:00:33;2.00;;;0.40;;
11004;SDS011;5555;59.622;16.556;2024-01-15T11:03:01;1.20;;;0.60;;
11004;SDS011;5555;59.622;16.556;2024-01-15T11:05:28;1.40;;;0.60;;
11004;SDS011;5555;59.622;16.556;2024-01-15T11:07:58;1.77;;;0.50;;
11004;SDS011;5555;59.622;16.556;2024-01-15T11:10:41;0.60;;;0.40;;
11004;SDS011;5555;59.622;16.556;2024-01-15T11:13:14;1.00;;;0.60;;
11004;SDS011;5555;59.622;16.556;2024-01-15T11:15:55;2.03;;;0.53;;
11004;SDS011;5555;59.622;16.556;2024-01-15T11:18:26;0.93;;;0.50;;
11004;SDS011;5555;59.622;16.556;2024-01-15T11:23:43;1.80;;;0.50;;
11004;SDS011;5555;59.622;16.556;2024-01-15T11:29:28;1.93;;;0.70;;
11004;SDS011;5555;59.622;16.556;2024-01-15T11:34:49;0.53;;;0.50;;
11004;SDS011;5555;59.622;16.556;2024-01-15T11:37:29;1.00;;;0.50;;
11004;SDS011;5555;59.622;16.556;2024-01-15T11:40:17;4.20;;;0.60;;
11004;SDS011;5555;59.622;16.556;2024-01-15T11:42:44;0.80;;;0.63;;
11004;SDS011;5555;59.622;16.556;2024-01-15T11:45:10;1.13;;;0.70;;
11004;SDS011;5555;59.622;16.556;2024-01-15T11:50:45;2.50;;;0.60;;
11004;SDS011;5555;59.622;16.556;2024-01-15T11:55:59;0.60;;;0.33;;
11004;SDS011;5555;59.622;16.556;2024-01-15T11:58:27;0.43;;;0.37;;
11004;SDS011;5555;59.622;16.556;2024-01-15T12:00:53;0.57;;;0.40;;
11004;SDS011;5555;59.622;16.556;2024-01-15T12:03:22;1.33;;;0.60;;
11004;SDS011;5555;59.622;16.556;2024-01-15T12:05:49;1.87;;;0.70;;
11004;SDS011;5555;59.622;16.556;2024-01-15T12:08:20;1.17;;;0.50;;
11004;SDS011;5555;59.622;16.556;2024-01-15T12:10:47;1.23;;;0.50;;
11004;SDS011;5555;59.622;16.556;2024-01-15T12:13:14;0.73;;;0.50;;
11004;SDS011;5555;59.622;16.556;2024-01-15T12:15:40;0.50;;;0.33;;
11004;SDS011;5555;59.622;16.556;2024-01-15T12:18:11;1.17;;;0.50;;
11004;SDS011;5555;59.622;16.556;2024-01-15T12:20:39;0.80;;;0.70;;
11004;SDS011;5555;59.622;16.556;2024-01-15T12:23:05;1.77;;;0.60;;
11004;SDS011;5555;59.622;16.556;2024-01-15T12:25:32;0.53;;;0.50;;
11004;SDS011;5555;59.622;16.556;2024-01-15T12:27:59;1.37;;;0.47;;
11004;SDS011;5555;59.622;16.556;2024-01-15T12:30:26;1.37;;;0.63;;
11004;SDS011;5555;59.622;16.556;2024-01-15T12:32:52;1.13;;;0.60;;
11004;SDS011;5555;59.622;16.556;2024-01-15T12:35:18;0.60;;;0.43;;
11004;SDS011;5555;59.622;16.556;2024-01-15T12:37:43;1.47;;;0.47;;
11004;SDS011;5555;59.622;16.556;2024-01-15T12:40:12;1.47;;;0.50;;
11004;SDS011;5555;59.622;16.556;2024-01-15T12:42:39;0.50;;;0.43;;
11004;SDS011;5555;59.622;16.556;2024-01-15T12:45:06;0.87;;;0.40;;
11004;SDS011;5555;59.622;16.556;2024-01-15T12:47:33;0.33;;;0.33;;
11004;SDS011;5555;59.622;16.556;2024-01-15T12:49:59;0.40;;;0.40;;
11004;SDS011;5555;59.622;16.556;2024-01-15T12:52:26;0.83;;;0.50;;
11004;SDS011;5555;59.622;16.556;2024-01-15T12:54:52;2.00;;;0.57;;
11004;SDS011;5555;59.622;16.556;2024-01-15T12:57:18;0.40;;;0.40;;
11004;SDS011;5555;59.622;16.556;2024-01-15T12:59:44;0.50;;;0.40;;
11004;SDS011;5555;59.622;16.556;2024-01-15T13:02:11;1.53;;;0.40;;
11004;SDS011;5555;59.622;16.556;2024-01-15T13:04:37;2.67;;;0.60;;
11004;SDS011;5555;59.622;16.556;2024-01-15T13:07:02;1.33;;;0.60;;
11004;SDS011;5555;59.622;16.556;2024-01-15T13:09:28;2.70;;;0.67;;
11004;SDS011;5555;59.622;16.556;2024-01-15T13:11:54;2.13;;;0.47;;
11004;SDS011;5555;59.622;16.556;2024-01-15T13:14:20;0.63;;;0.40;;
11004;SDS011;5555;59.622;16.556;2024-01-15T13:16:46;0.93;;;0.50;;
11004;SDS011;5555;59.622;16.556;2024-01-15T13:19:12;0.57;;;0.50;;
11004;SDS011;5555;59.622;16.556;2024-01-15T13:21:38;0.57;;;0.33;;
11004;SDS011;5555;59.622;16.556;2024-01-15T13:24:07;0.93;;;0.40;;
11004;SDS011;5555;59.622;16.556;2024-01-15T13:26:33;1.30;;;0.40;;
11004;SDS011;5555;59.622;16.556;2024-01-15T13:29:00;0.57;;;0.40;;
11004;SDS011;5555;59.622;16.556;2024-01-15T13:31:29;1.33;;;0.47;;
11004;SDS011;5555;59.622;16.556;2024-01-15T13:33:56;1.83;;;0.50;;
11004;SDS011;5555;59.622;16.556;2024-01-15T13:36:23;0.87;;;0.40;;
11004;SDS011;5555;59.622;16.556;2024-01-15T13:38:52;1.07;;;0.50;;
11004;SDS011;5555;59.622;16.556;2024-01-15T13:41:21;1.07;;;0.30;;
11004;SDS011;5555;59.622;16.556;2024-01-15T13:43:50;0.97;;;0.50;;
11004;SDS011;5555;59.622;16.556;2024-01-15T13:46:17;0.63;;;0.50;;
11004;SDS011;5555;59.622;16.556;2024-01-15T13:48:54;0.50;;;0.50;;
11004;SDS011;5555;59.622;16.556;2024-01-15T13:51:21;0.40;;;0.40;;
11004;SDS011;5555;59.622;16.556;2024-01-15T13:53:48;1.40;;;0.40;;
11004;SDS011;5555;59.622;16.556;2024-01-15T13:56:14;3.80;;;0.40;;
11004;SDS011;5555;59.622;16.556;2024-01-15T13:58:40;0.50;;;0.33;;
11004;SDS011;5555;59.622;16.556;2024-01-15T14:01:07;0.40;;;0.40;;
11004;SDS011;5555;59.622;16.556;2024-01-15T14:03:33;2.93;;;0.47;;
11004;SDS011;5555;59.622;16.556;2024-01-15T14:05:59;0.30;;;0.30;;
11004;SDS011;5555;59.622;16.556;2024-01-15T14:08:28;0.50;;;0.43;;
11004;SDS011;5555;59.622;16.556;2024-01-15T14:10:53;1.00;;;0.50;;
11004;SDS011;5555;59.622;16.556;2024-01-15T14:13:20;0.63;;;0.50;;
11004;SDS011;5555;59.622;16.556;2024-01-15T14:15:47;2.07;;;0.40;;
11004;SDS011;5555;59.622;16.556;2024-01-15T14:18:14;2.10;;;0.53;;
11004;SDS011;5555;59.622;16.556;2024-01-15T14:20:41;1.40;;;0.50;;
11004;SDS011;5555;59.622;16.556;2024-01-15T14:23:06;2.97;;;0.80;;
11004;SDS011;5555;59.622;16.556;2024-01-15T14:25:32;1.10;;;0.60;;
11004;SDS011;5555;59.622;16.556;2024-01-15T14:27:58;1.53;;;0.30;;
11004;SDS011;5555;59.622;16.556;2024-01-15T14:30:24;3.13;;;0.40;;
11004;SDS011;5555;59.622;16.556;2024-01-15T14:32:49;0.53;;;0.50;;
11004;SDS011;5555;59.622;16.556;2024-01-15T14:35:15;0.50;;;0.50;;
11004;SDS011;5555;59.622;16.556;2024-01-15T14:37:40;2.57;;;0.53;;
11004;SDS011;5555;59.622;16.556;2024-01-15T14:40:06;0.80;;;0.53;;
11004;SDS011;5555;59.622;16.556;2024-01-15T14:42:41;1.10;;;0.40;;
11004;SDS011;5555;59.622;16.556;2024-01-15T14:45:07;0.50;;;0.40;;
11004;SDS011;5555;59.622;16.556;2024-01-15T14:47:39;0.30;;;0.30;;
11004;SDS011;5555;59.622;16.556;2024-01-15T14:50:06;0.57;;;0.57;;
11004;SDS011;5555;59.622;16.556;2024-01-15T14:52:32;0.90;;;0.50;;
11004;SDS011;5555;59.622;16.556;2024-01-15T14:54:58;0.87;;;0.50;;
11004;SDS011;5555;59.622;16.556;2024-01-15T14:57:24;0.83;;;0.30;;
11004;SDS011;5555;59.622;16.556;2024-01-15T14:59:50;0.60;;;0.57;;